TFM - Tactical Decision Aid
ID: Runway Winds: CIG/VIS Threshold:

KMIA - Miami Intl, FL, US

Updated at: 1043 UTC 23 Jun 2021
Latest TAF at: 0851 UTC 23 Jun 2021

TAF Board

Time<<23/23Z 24/00Z 24/01Z 24/02Z 24/03Z 24/04Z 24/05Z 24/06Z 24/07Z 24/08Z 24/09Z 24/10Z 24/11Z>>
Type PRVL PRVL PRVL PRVL PRVL PRVL PRVL PRVL PRVL PRVL PRVL PRVL PRVL
VIS >6 >6 >6 >6 >6 >6 >6 >6 >6 >6 >6 >6 >6
CIG 50 50 250 250 250 250 250 -- -- -- -- -- --
Cover BKN BKN BKN BKN BKN BKN BKN SCT SCT SCT SCT SCT SCT
FltCat VFR VFR VFR VFR VFR VFR VFR VFR VFR VFR VFR VFR VFR
WX VCTS VCTS VCSH VCSH VCSH VCSH VCSH -- -- -- -- -- --
WDir 140 140 VRB VRB VRB VRB VRB 90 90 90 90 90 90
WSpd 8 8 3 3 3 3 3 4 4 4 4 4 4
WGst -- -- -- -- -- -- -- -- -- -- -- -- --

TDA Impact Legend

  None Marginal Slight Moderate High
Visibility (sm) >5 3≤X≤5 1≤X<3 0.5≤X<1 <0.5
Ceiling (100 ft) >30 10≤X≤30 4≤X<10 2≤X<4 <2
Wind Speed (kt) <15 15≤X<25 25≤X<30 ≥30
Wind Gust (kt) <15 15≤X<25 25≤X<35 ≥35
Weather No Wx Reported VCTS -TS,-FZRA TS,FZRA +TS,+FZRA
TAF
KMIA 230851Z 2309/2412 VRB05KT P6SM VCSH SCT030 SCT250
  FM231400 14008KT P6SM VCTS SCT025CB BKN050
  FM240100 VRB03KT P6SM VCSH SCT025 SCT050 BKN250
  FM240600 09004KT P6SM FEW025 SCT250


Radar Display
Forecast Discussion